KPIH/PIH METAR and TAF weather

Enter ICAO airport designator
Station Type Date Time Source
KPIH METAR 2021/05/14 12:53 UTC NOAA

KPIH 141253Z 22006KT 10SM CLR 09/00 A3005 RMK AO2 SLP140 T00940000


Station Type Date Time Source
KPIH Decoded METAR 2021/05/14 12:53 UTC NOAA

POCATELLO REGIONAL AIRPORT, ID, United States (KPIH) 42-55N 112-36W 1359M
May 14, 2021 - 08:53 AM EDT / 2021.05.14 1253 UTC
Wind: from the SW (220 degrees) at 7 MPH (6 KT):0
Visibility: 10 mile(s):0
Sky conditions: clear
Temperature: 48.9 F (9.4 C)
Dew Point: 32.0 F (0.0 C)
Relative Humidity: 51%
Pressure (altimeter): 30.05 in. Hg (1017 hPa)
ob: KPIH 141253Z 22006KT 10SM CLR 09/00 A3005 RMK AO2 SLP140 T00940000
cycle: 13

Station Type Date Time Source
KPIH TAF 2021/05/14 12:22 UTC NOAA

TAF KPIH 141120Z 1412/1512 21009KT P6SM SCT140
FM142000 29010G20KT P6SM SCT060
FM142200 27010G20KT P6SM VCTS SCT060CB
FM150400 04007KT P6SM SCT060 BKN120

Example: see airport list